Time;durP1;ratioP1;P1;durP2;ratioP2;P2;SDS_P1;SDS_P2;PMS_P1;PMS_P2;Temp;Humidity;BMP_temperature;BMP_pressure;BME280_temperature;BME280_humidity;BME280_pressure;Samples;Min_cycle;Max_cycle;Signal;HPM_P1;HPM_P2
2022/08/18 00:03:45;;;;;;;;;;;26.90;38.60;;;;;;8397500;28;19917;-45
2022/08/18 00:07:45;;;;;;;;;;;26.90;38.60;;;;;;8397363;28;20007;-44
2022/08/18 00:11:45;;;;;;;;;;;26.90;38.60;;;;;;8397118;28;20283;-45
2022/08/18 00:15:46;;;;;;;;;;;26.90;38.60;;;;;;8397152;28;19947;-44
2022/08/18 00:19:47;;;;;;;;;;;26.90;38.60;;;;;;8397005;28;20438;-44
2022/08/18 00:23:47;;;;;;;;;;;26.90;38.60;;;;;;8395839;28;19920;-44
2022/08/18 00:27:48;;;;;;;;;;;26.90;38.60;;;;;;8397017;28;19974;-44
2022/08/18 00:31:48;;;;;;;;;;;26.90;38.60;;;;;;8397203;28;19925;-45
2022/08/18 00:35:49;;;;;;;;;;;26.90;38.70;;;;;;8396298;28;19923;-44
2022/08/18 00:39:51;;;;;;;;;;;26.90;38.70;;;;;;8396437;28;19931;-44
2022/08/18 00:43:53;;;;;;;;;;;26.90;38.70;;;;;;8396681;28;19923;-44
2022/08/18 00:47:54;;;;;;;;;;;26.80;38.70;;;;;;8396149;28;19939;-46
2022/08/18 00:51:55;;;;;;;;;;;26.80;38.70;;;;;;8395451;28;20007;-45
2022/08/18 00:55:57;;;;;;;;;;;26.80;38.70;;;;;;8396516;28;19916;-45
2022/08/18 01:00:01;;;;;;;;;;;26.80;38.70;;;;;;8396510;28;19924;-44
2022/08/18 01:04:05;;;;;;;;;;;26.80;38.70;;;;;;8396322;28;19916;-44
2022/08/18 01:08:10;;;;;;;;;;;26.80;38.80;;;;;;8395033;28;19940;-44
2022/08/18 01:12:10;;;;;;;;;;;26.80;38.80;;;;;;8396373;28;19938;-45
2022/08/18 01:29:21;;;;;;;;;;;26.80;38.80;;;;;;8397108;28;19961;-45
2022/08/18 01:33:25;;;;;;;;;;;26.80;38.80;;;;;;8395987;28;19921;-44
2022/08/18 01:37:27;;;;;;;;;;;26.80;38.80;;;;;;8402438;28;19912;-44
2022/08/18 01:41:28;;;;;;;;;;;26.80;38.80;;;;;;8401538;28;19930;-45
2022/08/18 01:45:32;;;;;;;;;;;26.80;38.90;;;;;;8402036;28;19920;-44
2022/08/18 01:49:32;;;;;;;;;;;26.70;38.90;;;;;;8401856;28;19917;-45
2022/08/18 01:53:33;;;;;;;;;;;26.70;38.90;;;;;;8401530;28;20003;-44
2022/08/18 01:57:41;;;;;;;;;;;26.70;38.90;;;;;;8401779;28;20383;-45
2022/08/18 02:01:44;;;;;;;;;;;26.70;38.90;;;;;;8401406;28;20303;-44
2022/08/18 02:05:47;;;;;;;;;;;26.70;38.90;;;;;;8400969;28;20366;-44
2022/08/18 02:09:47;;;;;;;;;;;26.70;38.90;;;;;;8401567;28;19917;-44
2022/08/18 02:13:48;;;;;;;;;;;26.70;39.00;;;;;;8401167;28;20041;-45
2022/08/18 02:17:49;;;;;;;;;;;26.70;39.00;;;;;;8400805;28;19924;-45
2022/08/18 02:21:52;;;;;;;;;;;26.70;39.00;;;;;;8400757;28;19958;-45
2022/08/18 02:25:52;;;;;;;;;;;26.70;39.00;;;;;;8400862;28;19916;-44
2022/08/18 02:29:53;;;;;;;;;;;26.70;39.10;;;;;;8400127;28;19924;-45
2022/08/18 02:33:53;;;;;;;;;;;26.70;39.10;;;;;;8400667;28;19951;-44
2022/08/18 02:37:57;;;;;;;;;;;26.60;39.00;;;;;;8400570;28;19920;-44
2022/08/18 02:41:57;;;;;;;;;;;26.70;39.10;;;;;;8399832;28;19934;-45
2022/08/18 02:45:57;;;;;;;;;;;26.70;39.10;;;;;;8399324;28;19916;-44
2022/08/18 02:49:58;;;;;;;;;;;26.60;39.00;;;;;;8399715;28;19928;-44
2022/08/18 02:53:58;;;;;;;;;;;26.60;39.10;;;;;;8399845;28;19927;-45
2022/08/18 02:58:02;;;;;;;;;;;26.60;39.00;;;;;;8400222;28;19912;-45
2022/08/18 03:02:04;;;;;;;;;;;26.60;39.10;;;;;;8399247;28;20385;-45
2022/08/18 03:06:04;;;;;;;;;;;26.60;39.10;;;;;;8399749;28;19916;-45
2022/08/18 03:10:06;;;;;;;;;;;26.60;39.10;;;;;;8399378;28;19923;-44
2022/08/18 03:14:06;;;;;;;;;;;26.60;39.10;;;;;;8398812;28;19921;-45
2022/08/18 03:18:07;;;;;;;;;;;26.60;39.10;;;;;;8399677;28;19919;-45
2022/08/18 03:22:08;;;;;;;;;;;26.60;39.10;;;;;;8398800;28;19931;-46
2022/08/18 03:26:10;;;;;;;;;;;26.60;39.20;;;;;;8398410;28;20339;-45
2022/08/18 03:30:11;;;;;;;;;;;26.50;39.10;;;;;;8399016;28;19917;-44
2022/08/18 03:34:11;;;;;;;;;;;26.50;39.10;;;;;;8398583;28;19927;-44
2022/08/18 03:38:12;;;;;;;;;;;26.50;39.10;;;;;;8398155;28;19967;-45
2022/08/18 03:42:12;;;;;;;;;;;26.50;39.10;;;;;;8398201;28;19932;-44
2022/08/18 03:46:13;;;;;;;;;;;26.50;39.20;;;;;;8398232;28;19924;-45
2022/08/18 03:50:14;;;;;;;;;;;26.50;39.10;;;;;;8397187;28;19917;-44
2022/08/18 03:54:15;;;;;;;;;;;26.50;39.20;;;;;;8398134;28;20365;-44
2022/08/18 03:58:16;;;;;;;;;;;26.50;39.20;;;;;;8397986;28;19921;-44
2022/08/18 04:02:17;;;;;;;;;;;26.50;39.20;;;;;;8397171;28;19935;-44
2022/08/18 04:06:21;;;;;;;;;;;26.50;39.20;;;;;;8379921;28;19917;-44
2022/08/18 04:10:22;;;;;;;;;;;26.50;39.20;;;;;;8378592;28;20023;-44
2022/08/18 04:14:24;;;;;;;;;;;26.50;39.30;;;;;;8396974;28;20373;-44
2022/08/18 04:18:24;;;;;;;;;;;26.50;39.30;;;;;;8397310;28;19912;-44
2022/08/18 04:22:25;;;;;;;;;;;26.50;39.30;;;;;;8397215;28;19923;-45
2022/08/18 04:26:25;;;;;;;;;;;26.40;39.20;;;;;;8396703;28;19927;-45
2022/08/18 04:30:27;;;;;;;;;;;26.50;39.30;;;;;;8397215;28;19951;-44
2022/08/18 04:34:28;;;;;;;;;;;26.40;39.20;;;;;;8396704;28;19925;-46
2022/08/18 04:38:29;;;;;;;;;;;26.40;39.20;;;;;;8396481;28;19962;-46
2022/08/18 04:42:29;;;;;;;;;;;26.40;39.30;;;;;;8396870;28;20344;-47
2022/08/18 04:46:33;;;;;;;;;;;26.40;39.30;;;;;;8396575;28;19917;-45
2022/08/18 04:50:35;;;;;;;;;;;26.40;39.30;;;;;;8396274;28;20373;-44
2022/08/18 04:54:39;;;;;;;;;;;26.40;39.20;;;;;;8396565;28;19916;-44
2022/08/18 04:58:40;;;;;;;;;;;26.40;39.30;;;;;;8396625;28;19916;-47
2022/08/18 05:02:40;;;;;;;;;;;26.40;39.30;;;;;;8395804;28;19917;-44
2022/08/18 05:06:42;;;;;;;;;;;26.40;39.30;;;;;;8396273;28;19921;-44
2022/08/18 05:10:42;;;;;;;;;;;26.40;39.40;;;;;;8400311;28;19916;-45
2022/08/18 05:14:44;;;;;;;;;;;26.40;39.40;;;;;;8402473;28;20404;-44
2022/08/18 05:18:44;;;;;;;;;;;26.40;39.40;;;;;;8402843;28;19983;-44
2022/08/18 05:22:45;;;;;;;;;;;26.40;39.40;;;;;;8402740;28;20007;-43
2022/08/18 05:26:45;;;;;;;;;;;26.30;39.30;;;;;;8402070;28;20317;-44
2022/08/18 05:30:46;;;;;;;;;;;26.40;39.40;;;;;;8402459;28;19924;-44
2022/08/18 05:34:48;;;;;;;;;;;26.30;39.40;;;;;;8402452;28;19943;-45
2022/08/18 05:39:07;;;;;;;;;;;26.30;39.40;;;;;;8401917;28;19925;-45
2022/08/18 05:43:09;;;;;;;;;;;26.30;39.40;;;;;;8402145;28;20292;-43
2022/08/18 05:47:11;;;;;;;;;;;26.30;39.40;;;;;;8401559;28;19920;-45
2022/08/18 05:51:24;;;;;;;;;;;26.30;39.40;;;;;;8402062;28;19944;-43
2022/08/18 05:59:44;;;;;;;;;;;26.30;39.40;;;;;;8401517;28;19927;-44
2022/08/18 06:03:48;;;;;;;;;;;26.30;39.50;;;;;;8401772;28;20266;-44
2022/08/18 06:07:51;;;;;;;;;;;26.30;39.50;;;;;;8401200;28;20376;-45
2022/08/18 06:11:56;;;;;;;;;;;26.30;39.40;;;;;;8400805;28;19916;-45
2022/08/18 06:15:57;;;;;;;;;;;26.30;39.40;;;;;;8401183;28;19985;-43
2022/08/18 06:20:08;;;;;;;;;;;26.30;39.40;;;;;;8399655;28;20024;-44
2022/08/18 06:24:17;;;;;;;;;;;26.30;39.40;;;;;;8400551;28;19912;-44
2022/08/18 06:28:18;;;;;;;;;;;26.30;39.40;;;;;;8400676;28;19917;-48
2022/08/18 06:32:27;;;;;;;;;;;26.30;39.40;;;;;;8400333;28;20365;-45
2022/08/18 06:36:37;;;;;;;;;;;26.30;39.40;;;;;;8400450;28;19917;-45
2022/08/18 06:40:38;;;;;;;;;;;26.40;39.50;;;;;;8400510;28;19946;-45
2022/08/18 06:44:45;;;;;;;;;;;26.30;39.30;;;;;;8400168;28;19920;-44
2022/08/18 06:48:52;;;;;;;;;;;26.40;39.50;;;;;;8400357;28;20031;-45
2022/08/18 06:53:00;;;;;;;;;;;26.40;39.40;;;;;;8400109;28;20281;-46
2022/08/18 06:57:01;;;;;;;;;;;26.30;39.30;;;;;;8399663;28;19917;-45
2022/08/18 07:01:04;;;;;;;;;;;26.30;39.30;;;;;;8399583;28;19920;-45
2022/08/18 07:05:06;;;;;;;;;;;26.30;39.40;;;;;;8399226;28;20381;-44
2022/08/18 07:09:18;;;;;;;;;;;26.30;39.40;;;;;;8398458;28;19958;-44
2022/08/18 07:13:21;;;;;;;;;;;26.30;39.40;;;;;;8399440;28;19917;-44
2022/08/18 07:17:26;;;;;;;;;;;26.30;39.40;;;;;;8398856;28;19991;-45
2022/08/18 07:21:28;;;;;;;;;;;26.30;39.40;;;;;;8399281;28;19921;-44
2022/08/18 07:25:30;;;;;;;;;;;26.30;39.40;;;;;;8398980;28;19942;-44
2022/08/18 07:29:33;;;;;;;;;;;26.30;39.40;;;;;;8398596;28;19919;-44
2022/08/18 07:33:35;;;;;;;;;;;26.30;39.50;;;;;;8398486;28;19925;-45
2022/08/18 07:37:40;;;;;;;;;;;26.30;39.40;;;;;;8398832;28;19981;-46
2022/08/18 07:41:43;;;;;;;;;;;26.30;39.40;;;;;;8397896;28;19971;-44
2022/08/18 07:45:44;;;;;;;;;;;26.30;39.50;;;;;;8398454;28;19924;-44
2022/08/18 07:49:46;;;;;;;;;;;26.30;39.50;;;;;;8398423;28;19916;-44
2022/08/18 07:53:55;;;;;;;;;;;26.30;39.50;;;;;;8397658;28;20377;-44
2022/08/18 07:58:07;;;;;;;;;;;26.30;39.50;;;;;;8397852;28;19916;-44
2022/08/18 08:02:30;;;;;;;;;;;26.30;39.60;;;;;;8397200;28;19928;-43
2022/08/18 08:06:47;;;;;;;;;;;26.30;39.60;;;;;;8397833;28;19917;-43
2022/08/18 08:10:54;;;;;;;;;;;26.40;39.60;;;;;;8397372;28;19920;-43
2022/08/18 08:14:59;;;;;;;;;;;26.30;39.50;;;;;;8397137;28;19919;-44
2022/08/18 08:19:19;;;;;;;;;;;26.30;39.50;;;;;;8397375;28;19924;-44
2022/08/18 08:23:39;;;;;;;;;;;26.30;39.50;;;;;;8396780;28;19962;-45
2022/08/18 08:27:46;;;;;;;;;;;26.40;39.60;;;;;;8397026;28;20034;-46
2022/08/18 08:32:02;;;;;;;;;;;26.40;39.60;;;;;;8397243;28;19928;-46
2022/08/18 08:36:08;;;;;;;;;;;26.40;39.50;;;;;;8396737;28;20388;-45
2022/08/18 08:40:21;;;;;;;;;;;26.40;39.60;;;;;;8396946;28;20450;-44
2022/08/18 08:44:45;;;;;;;;;;;26.40;39.50;;;;;;8395466;28;19917;-43
2022/08/18 08:48:49;;;;;;;;;;;26.40;39.50;;;;;;8396480;28;20274;-45
2022/08/18 08:53:01;;;;;;;;;;;26.40;39.50;;;;;;8396420;28;19967;-44
2022/08/18 08:57:02;;;;;;;;;;;26.40;39.60;;;;;;8396216;28;19917;-44
2022/08/18 09:01:04;;;;;;;;;;;26.40;39.60;;;;;;8396084;28;19932;-43
2022/08/18 09:05:10;;;;;;;;;;;26.40;39.50;;;;;;8396143;28;19999;-43
2022/08/18 09:09:21;;;;;;;;;;;26.40;39.60;;;;;;8396229;28;19923;-44
2022/08/18 09:13:40;;;;;;;;;;;26.50;39.60;;;;;;8396146;28;20004;-43
2022/08/18 09:17:59;;;;;;;;;;;26.50;39.60;;;;;;8395563;28;19917;-43
2022/08/18 09:22:13;;;;;;;;;;;26.50;39.50;;;;;;8396000;28;19929;-43
2022/08/18 09:26:21;;;;;;;;;;;26.50;39.50;;;;;;8395643;28;19916;-43
2022/08/18 09:30:40;;;;;;;;;;;26.50;39.60;;;;;;8396104;28;19913;-43
2022/08/18 09:35:03;;;;;;;;;;;26.50;39.50;;;;;;8395853;28;20276;-43
2022/08/18 09:44:12;;;;;;;;;;;26.50;39.50;;;;;;8399193;28;20282;-45
2022/08/18 09:48:13;;;;;;;;;;;26.60;39.60;;;;;;8395495;28;19916;-43
2022/08/18 09:52:19;;;;;;;;;;;26.60;40.10;;;;;;8395330;28;19917;-43
2022/08/18 09:56:42;;;;;;;;;;;26.60;39.50;;;;;;8397873;28;19913;-43
2022/08/18 10:00:43;;;;;;;;;;;26.60;39.40;;;;;;8401519;28;19928;-42
2022/08/18 10:04:50;;;;;;;;;;;26.60;39.40;;;;;;8400297;28;20262;-43
2022/08/18 10:08:56;;;;;;;;;;;26.60;39.40;;;;;;8400830;28;19947;-44
2022/08/18 10:13:01;;;;;;;;;;;26.70;39.40;;;;;;8401126;28;20429;-42
2022/08/18 10:17:08;;;;;;;;;;;26.70;39.40;;;;;;8400813;28;19962;-43
2022/08/18 10:21:17;;;;;;;;;;;26.70;39.40;;;;;;8401424;28;20383;-43
2022/08/18 10:25:32;;;;;;;;;;;26.70;39.30;;;;;;8401273;28;20377;-43
2022/08/18 10:29:43;;;;;;;;;;;26.70;39.30;;;;;;8400267;28;19999;-42
2022/08/18 10:34:01;;;;;;;;;;;26.70;39.30;;;;;;8400621;28;19928;-44
2022/08/18 10:38:11;;;;;;;;;;;26.80;39.30;;;;;;8399899;28;19913;-43
2022/08/18 10:42:30;;;;;;;;;;;26.80;39.30;;;;;;8400403;28;19967;-44
2022/08/18 10:46:31;;;;;;;;;;;26.80;39.30;;;;;;8400109;28;19924;-44
2022/08/18 10:50:37;;;;;;;;;;;26.80;39.20;;;;;;8399944;28;20006;-44
2022/08/18 10:54:56;;;;;;;;;;;26.80;39.20;;;;;;8399927;28;20327;-44
2022/08/18 10:59:09;;;;;;;;;;;26.80;39.20;;;;;;8399280;28;19916;-43
2022/08/18 11:03:19;;;;;;;;;;;26.80;39.10;;;;;;8399652;28;19982;-43
2022/08/18 11:07:24;;;;;;;;;;;26.80;39.10;;;;;;8398765;28;19927;-43
2022/08/18 11:11:32;;;;;;;;;;;26.80;39.00;;;;;;8399033;28;19925;-43
2022/08/18 11:15:46;;;;;;;;;;;26.90;39.10;;;;;;8399300;28;19917;-43
2022/08/18 11:19:47;;;;;;;;;;;26.90;39.00;;;;;;8397719;28;20039;-43
2022/08/18 11:24:02;;;;;;;;;;;26.90;39.10;;;;;;8398451;28;19921;-43
2022/08/18 11:28:13;;;;;;;;;;;26.90;39.00;;;;;;8398658;28;20292;-43
2022/08/18 11:32:18;;;;;;;;;;;26.90;39.00;;;;;;8397153;28;20362;-43
2022/08/18 11:36:28;;;;;;;;;;;27.00;39.10;;;;;;8399369;28;19966;-43
2022/08/18 11:40:36;;;;;;;;;;;27.00;39.00;;;;;;8402481;28;20007;-43
2022/08/18 11:44:37;;;;;;;;;;;27.00;39.10;;;;;;8397878;28;20003;-43
2022/08/18 11:48:44;;;;;;;;;;;27.00;39.10;;;;;;8398133;28;19923;-44
2022/08/18 11:52:51;;;;;;;;;;;27.00;39.00;;;;;;8397903;28;19916;-44
2022/08/18 11:56:52;;;;;;;;;;;27.00;39.00;;;;;;8397996;28;19913;-43
2022/08/18 12:00:54;;;;;;;;;;;27.00;39.00;;;;;;8397978;28;19943;-43
2022/08/18 12:04:56;;;;;;;;;;;27.00;39.10;;;;;;8397533;28;19948;-44
2022/08/18 12:08:57;;;;;;;;;;;27.00;39.00;;;;;;8397416;28;19959;-44
2022/08/18 12:12:58;;;;;;;;;;;27.00;39.10;;;;;;8397084;28;19959;-44
2022/08/18 12:16:59;;;;;;;;;;;26.90;39.00;;;;;;8397077;28;19918;-43
2022/08/18 12:21:00;;;;;;;;;;;26.90;39.10;;;;;;8396919;28;20015;-45
2022/08/18 12:25:02;;;;;;;;;;;26.90;39.10;;;;;;8396934;28;19999;-43
2022/08/18 12:29:02;;;;;;;;;;;26.90;39.10;;;;;;8396232;28;19923;-44
2022/08/18 12:33:03;;;;;;;;;;;26.90;39.10;;;;;;8396948;28;19920;-43
2022/08/18 12:37:06;;;;;;;;;;;26.90;39.10;;;;;;8396902;28;19912;-44
2022/08/18 12:41:10;;;;;;;;;;;26.90;39.10;;;;;;8395796;28;19932;-44
2022/08/18 12:45:11;;;;;;;;;;;26.90;39.10;;;;;;8396733;28;19974;-44
2022/08/18 12:49:19;;;;;;;;;;;26.90;39.10;;;;;;8396679;28;19916;-44
2022/08/18 12:53:20;;;;;;;;;;;26.90;39.10;;;;;;8396136;28;19987;-44
2022/08/18 12:57:22;;;;;;;;;;;26.90;39.10;;;;;;8396307;28;19917;-44
2022/08/18 13:01:23;;;;;;;;;;;26.90;39.20;;;;;;8396422;28;19927;-44
2022/08/18 13:05:24;;;;;;;;;;;26.90;39.20;;;;;;8395846;28;19924;-44
2022/08/18 13:09:25;;;;;;;;;;;26.90;39.10;;;;;;8395305;28;19971;-43
2022/08/18 13:13:25;;;;;;;;;;;26.90;39.10;;;;;;8395979;28;20271;-44
2022/08/18 13:17:26;;;;;;;;;;;26.90;39.70;;;;;;8395675;28;19948;-44
2022/08/18 13:21:27;;;;;;;;;;;26.90;39.20;;;;;;8396114;28;19921;-44
2022/08/18 13:25:27;;;;;;;;;;;26.90;39.20;;;;;;8395894;28;19917;-44
2022/08/18 13:29:27;;;;;;;;;;;26.90;39.10;;;;;;8395538;28;20289;-44
2022/08/18 13:33:28;;;;;;;;;;;26.90;39.10;;;;;;8402389;28;20011;-44
2022/08/18 13:37:30;;;;;;;;;;;26.90;39.20;;;;;;8402582;28;20258;-44
2022/08/18 13:41:32;;;;;;;;;;;26.90;39.20;;;;;;8401647;28;19924;-44
2022/08/18 13:45:33;;;;;;;;;;;26.90;39.20;;;;;;8402236;28;19924;-44
2022/08/18 13:49:33;;;;;;;;;;;26.90;39.20;;;;;;8402091;28;19917;-44
2022/08/18 13:53:36;;;;;;;;;;;26.90;39.20;;;;;;8401419;28;19923;-44
2022/08/18 13:57:37;;;;;;;;;;;26.90;39.20;;;;;;8401809;28;19913;-43
2022/08/18 14:01:39;;;;;;;;;;;26.90;39.20;;;;;;8401569;28;19924;-44
2022/08/18 14:05:40;;;;;;;;;;;26.90;39.20;;;;;;8401139;28;19920;-45
2022/08/18 14:09:41;;;;;;;;;;;26.90;39.20;;;;;;8401296;28;19955;-44
2022/08/18 14:13:43;;;;;;;;;;;26.90;39.20;;;;;;8401229;28;20003;-46
2022/08/18 14:17:43;;;;;;;;;;;26.90;39.20;;;;;;8400896;28;20323;-44
2022/08/18 14:30:24;;;;;;;;;;;26.90;39.20;;;;;;8401117;28;20411;-46
2022/08/18 14:34:24;;;;;;;;;;;26.90;39.20;;;;;;8400783;28;19920;-45
2022/08/18 14:38:25;;;;;;;;;;;26.90;39.20;;;;;;8400213;28;19938;-45
2022/08/18 14:42:25;;;;;;;;;;;26.90;39.20;;;;;;8399177;28;19995;-45
2022/08/18 14:46:26;;;;;;;;;;;26.90;39.20;;;;;;8400185;28;19926;-44
2022/08/18 14:50:28;;;;;;;;;;;26.90;39.20;;;;;;8399770;28;19920;-44
2022/08/18 14:54:30;;;;;;;;;;;26.90;39.20;;;;;;8400192;28;19962;-42
2022/08/18 14:58:30;;;;;;;;;;;26.90;39.20;;;;;;8399994;28;19927;-45
2022/08/18 15:02:31;;;;;;;;;;;26.90;39.20;;;;;;8399541;28;20385;-44
2022/08/18 15:06:31;;;;;;;;;;;26.90;39.20;;;;;;8399538;28;19916;-44
2022/08/18 15:10:32;;;;;;;;;;;26.90;39.20;;;;;;8399424;28;20390;-44
2022/08/18 15:14:33;;;;;;;;;;;26.90;39.30;;;;;;8398742;28;19931;-44
2022/08/18 15:18:34;;;;;;;;;;;26.90;39.20;;;;;;8399131;28;19916;-44
2022/08/18 15:26:58;;;;;;;;;;;26.90;39.30;;;;;;8398614;28;20297;-44
2022/08/18 15:30:58;;;;;;;;;;;26.90;39.30;;;;;;8399048;28;19920;-45
2022/08/18 15:34:59;;;;;;;;;;;26.80;39.30;;;;;;8398071;28;19923;-44
2022/08/18 15:39:03;;;;;;;;;;;26.90;39.40;;;;;;8398297;28;19927;-45
2022/08/18 15:43:05;;;;;;;;;;;26.90;39.40;;;;;;8398505;28;19962;-44
2022/08/18 15:47:06;;;;;;;;;;;26.80;39.30;;;;;;8397883;28;20388;-44
2022/08/18 15:51:07;;;;;;;;;;;26.90;39.50;;;;;;8398259;28;19923;-44
2022/08/18 15:55:07;;;;;;;;;;;26.90;39.50;;;;;;8397697;28;19923;-44
2022/08/18 15:59:09;;;;;;;;;;;26.80;39.40;;;;;;8397390;28;19964;-45
2022/08/18 16:03:12;;;;;;;;;;;26.80;39.40;;;;;;8398099;28;19913;-45
2022/08/18 16:07:13;;;;;;;;;;;26.80;39.40;;;;;;8396881;28;20392;-45
2022/08/18 16:11:14;;;;;;;;;;;26.80;39.40;;;;;;8397206;28;20081;-44
2022/08/18 16:15:15;;;;;;;;;;;26.80;39.50;;;;;;8397828;28;19916;-44
2022/08/18 16:19:16;;;;;;;;;;;26.80;39.50;;;;;;8397076;28;20266;-44
2022/08/18 16:23:16;;;;;;;;;;;26.80;39.50;;;;;;8396822;28;19912;-44
2022/08/18 16:27:17;;;;;;;;;;;26.80;39.40;;;;;;8397240;28;19923;-46
2022/08/18 16:31:23;;;;;;;;;;;26.80;39.50;;;;;;8396964;28;19928;-44
2022/08/18 16:35:23;;;;;;;;;;;26.80;39.50;;;;;;8396396;28;19962;-44
2022/08/18 16:39:24;;;;;;;;;;;26.80;39.50;;;;;;8396610;28;20023;-44
2022/08/18 16:43:25;;;;;;;;;;;26.80;39.50;;;;;;8396837;28;19939;-45
2022/08/18 16:47:26;;;;;;;;;;;26.80;39.50;;;;;;8396152;28;19916;-44
2022/08/18 16:51:27;;;;;;;;;;;26.80;39.50;;;;;;8388900;28;20019;-45
2022/08/18 16:55:29;;;;;;;;;;;26.80;39.50;;;;;;8375596;28;19916;-44
2022/08/18 17:04:06;;;;;;;;;;;26.80;39.50;;;;;;8388379;28;19930;-43
2022/08/18 17:08:06;;;;;;;;;;;26.70;39.40;;;;;;8394097;28;19961;-45
2022/08/18 17:12:07;;;;;;;;;;;26.80;39.50;;;;;;8395920;28;20327;-44
2022/08/18 17:16:08;;;;;;;;;;;26.80;39.50;;;;;;8392472;28;20404;-46
2022/08/18 17:20:09;;;;;;;;;;;26.70;39.50;;;;;;8390406;28;19924;-44
2022/08/18 17:24:10;;;;;;;;;;;26.70;39.50;;;;;;8367517;28;19982;-44
2022/08/18 17:28:11;;;;;;;;;;;26.70;39.50;;;;;;8380022;28;19924;-45
2022/08/18 17:32:18;;;;;;;;;;;26.70;39.50;;;;;;8393294;28;20284;-44
2022/08/18 17:36:28;;;;;;;;;;;26.70;39.50;;;;;;8377160;28;19917;-43
2022/08/18 17:40:32;;;;;;;;;;;26.70;39.50;;;;;;8373537;28;19924;-43
2022/08/18 17:44:33;;;;;;;;;;;26.70;39.60;;;;;;8394282;28;19923;-44
2022/08/18 17:48:41;;;;;;;;;;;26.70;39.60;;;;;;8393141;28;19918;-43
2022/08/18 17:52:47;;;;;;;;;;;26.70;39.60;;;;;;8391993;28;19920;-43
2022/08/18 17:56:51;;;;;;;;;;;26.70;39.60;;;;;;8389988;28;20388;-43
2022/08/18 18:00:52;;;;;;;;;;;26.70;39.70;;;;;;8392060;28;20015;-44
2022/08/18 18:04:52;;;;;;;;;;;26.70;39.70;;;;;;8390896;28;19923;-43
2022/08/18 18:08:55;;;;;;;;;;;26.70;39.70;;;;;;8387813;28;19948;-44
2022/08/18 18:13:19;;;;;;;;;;;26.70;39.80;;;;;;8394133;28;20000;-45
2022/08/18 18:17:23;;;;;;;;;;;26.70;39.80;;;;;;8377774;28;19932;-43
2022/08/18 18:21:25;;;;;;;;;;;26.70;39.80;;;;;;8395779;28;20420;-45
2022/08/18 18:25:32;;;;;;;;;;;26.70;39.80;;;;;;8394232;28;19917;-44
2022/08/18 18:29:32;;;;;;;;;;;26.70;39.90;;;;;;8404979;28;20397;-43
2022/08/18 18:33:33;;;;;;;;;;;26.60;39.80;;;;;;8386119;28;20007;-44
2022/08/18 18:37:38;;;;;;;;;;;26.60;39.80;;;;;;8382237;28;19923;-45
2022/08/18 18:41:39;;;;;;;;;;;26.60;39.80;;;;;;8386121;28;20364;-44
2022/08/18 18:45:40;;;;;;;;;;;26.60;39.80;;;;;;8420209;28;19927;-44
2022/08/18 18:49:45;;;;;;;;;;;26.60;39.80;;;;;;8394497;28;19917;-44
2022/08/18 18:53:51;;;;;;;;;;;26.60;39.90;;;;;;8391395;28;19924;-44
2022/08/18 18:57:55;;;;;;;;;;;26.60;39.90;;;;;;8392988;28;19917;-44
2022/08/18 19:02:01;;;;;;;;;;;26.60;39.90;;;;;;8384226;28;19930;-43
2022/08/18 19:06:04;;;;;;;;;;;26.60;40.00;;;;;;8391581;28;19916;-43
2022/08/18 19:10:05;;;;;;;;;;;26.60;39.90;;;;;;8392862;28;19924;-44
2022/08/18 19:14:13;;;;;;;;;;;26.60;40.10;;;;;;8373565;28;20277;-45
2022/08/18 19:18:33;;;;;;;;;;;26.60;40.10;;;;;;8371707;28;19917;-44
2022/08/18 19:22:36;;;;;;;;;;;26.60;40.00;;;;;;8388669;28;19925;-45
2022/08/18 19:26:40;;;;;;;;;;;26.60;40.10;;;;;;8397040;28;19924;-44
2022/08/18 19:30:42;;;;;;;;;;;26.60;40.10;;;;;;8398047;28;19920;-44
2022/08/18 19:34:44;;;;;;;;;;;26.60;40.10;;;;;;8398821;28;19938;-45
2022/08/18 19:38:44;;;;;;;;;;;26.60;40.10;;;;;;8398192;28;19917;-44
2022/08/18 19:43:03;;;;;;;;;;;26.60;40.20;;;;;;8398139;28;19925;-44
2022/08/18 19:47:09;;;;;;;;;;;26.60;40.20;;;;;;8397753;28;19951;-45
2022/08/18 19:51:24;;;;;;;;;;;26.50;40.10;;;;;;8398474;28;19923;-45
2022/08/18 19:55:49;;;;;;;;;;;26.50;40.10;;;;;;8397596;28;21272;-45
2022/08/18 20:00:10;;;;;;;;;;;26.50;40.10;;;;;;8397740;28;19920;-43
2022/08/18 20:04:20;;;;;;;;;;;26.50;40.20;;;;;;8398083;28;19920;-45
2022/08/18 20:08:27;;;;;;;;;;;26.50;40.20;;;;;;8397300;28;19925;-46
2022/08/18 20:12:41;;;;;;;;;;;26.50;40.20;;;;;;8397415;28;19917;-45
2022/08/18 20:17:02;;;;;;;;;;;26.50;40.20;;;;;;8397422;28;20281;-45
2022/08/18 20:21:15;;;;;;;;;;;26.50;40.30;;;;;;8396853;28;19924;-45
2022/08/18 20:25:16;;;;;;;;;;;26.50;40.20;;;;;;8397502;28;19913;-45
2022/08/18 20:29:38;;;;;;;;;;;26.50;40.20;;;;;;8397010;28;19913;-45
2022/08/18 20:33:42;;;;;;;;;;;26.50;40.30;;;;;;8397206;28;20007;-44
2022/08/18 20:37:42;;;;;;;;;;;26.50;40.30;;;;;;8395712;28;19919;-45
2022/08/18 20:41:44;;;;;;;;;;;26.50;40.30;;;;;;8395439;28;20079;-45
2022/08/18 20:45:44;;;;;;;;;;;26.50;40.30;;;;;;8396722;28;19967;-45
2022/08/18 20:50:04;;;;;;;;;;;26.50;40.40;;;;;;8396823;28;20293;-45
2022/08/18 20:54:15;;;;;;;;;;;26.50;40.30;;;;;;8396276;28;20320;-45
2022/08/18 20:58:18;;;;;;;;;;;26.50;40.30;;;;;;8396526;28;19917;-45
2022/08/18 21:02:36;;;;;;;;;;;26.50;40.40;;;;;;8395929;28;19925;-45
2022/08/18 21:06:40;;;;;;;;;;;26.50;40.40;;;;;;8396450;28;20277;-46
2022/08/18 21:10:49;;;;;;;;;;;26.50;40.40;;;;;;8396498;28;20003;-45
2022/08/18 21:14:51;;;;;;;;;;;26.40;40.40;;;;;;8395965;28;20328;-45
2022/08/18 21:18:56;;;;;;;;;;;26.50;40.50;;;;;;8396116;28;19954;-45
2022/08/18 21:23:01;;;;;;;;;;;26.50;40.40;;;;;;8395789;28;19920;-44
2022/08/18 21:27:09;;;;;;;;;;;26.50;40.40;;;;;;8395970;28;19962;-47
2022/08/18 21:31:21;;;;;;;;;;;26.50;40.50;;;;;;8396028;28;19927;-45
2022/08/18 21:35:32;;;;;;;;;;;26.40;40.40;;;;;;8395792;28;19952;-44
2022/08/18 21:39:33;;;;;;;;;;;26.40;40.40;;;;;;8396148;28;19928;-46
2022/08/18 21:43:34;;;;;;;;;;;26.40;40.50;;;;;;8395890;28;19916;-46
2022/08/18 21:47:35;;;;;;;;;;;26.40;40.50;;;;;;8395286;28;19955;-47
2022/08/18 21:51:43;;;;;;;;;;;26.40;40.50;;;;;;8397546;28;20305;-45
2022/08/18 21:55:45;;;;;;;;;;;26.40;40.50;;;;;;8402099;28;20003;-45
2022/08/18 22:00:04;;;;;;;;;;;26.40;40.50;;;;;;8401257;28;19971;-46
2022/08/18 22:04:17;;;;;;;;;;;26.40;40.50;;;;;;8400886;28;19924;-46
2022/08/18 22:08:19;;;;;;;;;;;26.40;40.50;;;;;;8400249;28;19917;-46
2022/08/18 22:16:47;;;;;;;;;;;26.40;40.60;;;;;;8401361;28;20034;-45
2022/08/18 22:20:47;;;;;;;;;;;26.40;40.60;;;;;;8400776;28;19924;-45
2022/08/18 22:24:52;;;;;;;;;;;26.40;40.50;;;;;;8400897;28;19978;-45
2022/08/18 22:28:54;;;;;;;;;;;26.40;40.60;;;;;;8400848;28;19995;-45
2022/08/18 22:32:55;;;;;;;;;;;26.40;40.60;;;;;;8400553;28;20373;-46
2022/08/18 22:37:00;;;;;;;;;;;26.40;40.50;;;;;;8400603;28;19920;-45
2022/08/18 22:41:01;;;;;;;;;;;26.40;40.60;;;;;;8400459;28;19928;-45
2022/08/18 22:45:03;;;;;;;;;;;26.30;40.60;;;;;;8400499;28;19923;-44
2022/08/18 22:49:04;;;;;;;;;;;26.30;40.70;;;;;;8400211;28;19955;-44
2022/08/18 22:53:04;;;;;;;;;;;26.30;40.70;;;;;;8399630;28;19913;-44
2022/08/18 22:57:05;;;;;;;;;;;26.30;40.80;;;;;;8398828;28;20350;-45
2022/08/18 23:01:05;;;;;;;;;;;26.30;40.90;;;;;;8400054;28;19932;-44
2022/08/18 23:05:06;;;;;;;;;;;26.30;40.90;;;;;;8398479;28;20293;-45
2022/08/18 23:09:07;;;;;;;;;;;26.30;41.00;;;;;;8399586;28;19920;-45
2022/08/18 23:13:07;;;;;;;;;;;26.30;41.00;;;;;;8399496;28;19916;-44
2022/08/18 23:17:07;;;;;;;;;;;26.30;41.00;;;;;;8398998;28;19916;-45
2022/08/18 23:21:08;;;;;;;;;;;26.30;41.10;;;;;;8399322;28;19964;-45
2022/08/18 23:25:08;;;;;;;;;;;26.30;41.10;;;;;;8399232;28;20328;-45
2022/08/18 23:29:10;;;;;;;;;;;26.30;41.10;;;;;;8398626;28;20293;-45
2022/08/18 23:33:12;;;;;;;;;;;26.30;41.20;;;;;;8398851;28;20389;-45
2022/08/18 23:37:12;;;;;;;;;;;26.30;41.10;;;;;;8398971;28;20289;-45
2022/08/18 23:41:15;;;;;;;;;;;26.20;41.10;;;;;;8398429;28;19932;-46
2022/08/18 23:45:19;;;;;;;;;;;26.20;41.20;;;;;;8398933;28;20274;-50
2022/08/18 23:49:19;;;;;;;;;;;26.20;41.20;;;;;;8398325;28;19916;-45
2022/08/18 23:53:20;;;;;;;;;;;26.20;41.20;;;;;;8397809;28;19916;-45
2022/08/18 23:57:20;;;;;;;;;;;26.20;41.20;;;;;;8398036;28;20393;-45
